createdAt,value
2023-03-16T00:00:56.854Z,1.02
2023-03-16T00:03:24.679Z,1.06
2023-03-16T00:05:54.295Z,1.07
2023-03-16T00:08:24.355Z,1.07
2023-03-16T00:10:54.267Z,1.08
2023-03-16T00:13:24.737Z,1.09
2023-03-16T00:15:53.446Z,1.08
2023-03-16T00:18:22.540Z,1.09
2023-03-16T00:20:53.439Z,1.10
2023-03-16T00:23:27.602Z,1.06
2023-03-16T00:26:02.051Z,1.11
2023-03-16T00:28:34.607Z,1.10
2023-03-16T00:31:02.934Z,1.07
2023-03-16T00:33:35.325Z,1.05
2023-03-16T00:36:09.377Z,1.04
2023-03-16T00:38:39.504Z,1.03
2023-03-16T00:41:09.639Z,1.00
2023-03-16T00:43:41.699Z,0.97
2023-03-16T00:46:11.520Z,0.95
2023-03-16T00:48:42.557Z,0.95
2023-03-16T00:51:13.673Z,0.95
2023-03-16T00:53:43.247Z,0.97
2023-03-16T00:56:13.781Z,0.98
2023-03-16T00:58:43.049Z,0.95
2023-03-16T01:01:14.184Z,1.00
2023-03-16T01:03:42.472Z,0.99
2023-03-16T01:06:12.458Z,1.00
2023-03-16T01:08:41.851Z,0.98
2023-03-16T01:11:12.730Z,0.95
2023-03-16T01:13:41.393Z,0.93
2023-03-16T01:16:11.189Z,0.90
2023-03-16T01:18:41.466Z,0.86
2023-03-16T01:21:13.728Z,0.81
2023-03-16T01:23:42.839Z,0.76
2023-03-16T01:26:12.270Z,0.72
2023-03-16T01:28:40.267Z,0.69
2023-03-16T01:31:10.151Z,0.68
2023-03-16T01:33:40.340Z,0.65
2023-03-16T01:36:13.559Z,0.63
2023-03-16T01:38:51.124Z,0.60
2023-03-16T01:41:20.413Z,0.59
2023-03-16T01:43:48.157Z,0.56
2023-03-16T01:46:20.067Z,0.54
2023-03-16T01:49:12.299Z,0.53
2023-03-16T01:51:45.324Z,0.50
2023-03-16T01:54:21.841Z,0.48
2023-03-16T01:56:58.371Z,0.44
2023-03-16T01:59:32.326Z,0.39
2023-03-16T02:02:03.035Z,0.33
2023-03-16T02:04:43.591Z,0.32
2023-03-16T02:07:17.127Z,0.30
2023-03-16T02:09:49.568Z,0.27
2023-03-16T02:12:20.332Z,0.24
2023-03-16T02:14:53.193Z,0.23
2023-03-16T02:17:24.880Z,0.23
2023-03-16T02:20:08.811Z,0.22
2023-03-16T02:22:42.359Z,0.22
2023-03-16T02:25:11.222Z,0.19
2023-03-16T02:27:47.321Z,0.15
2023-03-16T02:30:18.498Z,0.11
2023-03-16T02:33:02.428Z,0.07
2023-03-16T02:35:30.245Z,0.05
2023-03-16T02:37:58.139Z,0.01
2023-03-16T02:40:32.917Z,0.00
2023-03-16T02:43:08.073Z,-0.03
2023-03-16T02:45:46.186Z,-0.03
2023-03-16T02:48:24.435Z,0.01
2023-03-16T02:50:54.559Z,0.05
2023-03-16T02:53:22.588Z,0.08
2023-03-16T02:55:50.825Z,0.08
2023-03-16T02:58:19.265Z,0.09
2023-03-16T03:00:49.249Z,0.12
2023-03-16T03:03:18.892Z,0.14
2023-03-16T03:05:46.737Z,0.18
2023-03-16T03:08:14.783Z,0.23
2023-03-16T03:10:42.692Z,0.29
2023-03-16T03:13:10.923Z,0.34
2023-03-16T03:15:39.124Z,0.41
2023-03-16T03:18:12.274Z,0.49
2023-03-16T03:20:40.914Z,0.55
2023-03-16T03:23:08.729Z,0.63
2023-03-16T03:25:36.431Z,0.67
2023-03-16T03:28:06.457Z,0.72
2023-03-16T03:30:34.282Z,0.69
2023-03-16T03:33:04.324Z,0.73
2023-03-16T03:35:33.472Z,0.79
2023-03-16T03:38:01.233Z,0.82
2023-03-16T03:40:29.477Z,0.87
2023-03-16T03:43:00.281Z,0.90
2023-03-16T03:45:28.940Z,0.93
2023-03-16T03:47:56.792Z,0.99
2023-03-16T03:50:25.538Z,1.00
2023-03-16T03:53:24.034Z,1.01
2023-03-16T03:56:20.918Z,1.06
2023-03-16T03:58:48.886Z,1.09
2023-03-16T04:01:24.259Z,1.12
2023-03-16T04:03:55.897Z,1.11
2023-03-16T04:06:23.858Z,1.14
2023-03-16T04:08:54.199Z,1.16
2023-03-16T04:11:26.018Z,1.18
2023-03-16T04:13:54.373Z,1.17
2023-03-16T04:16:22.490Z,1.19
2023-03-16T04:18:54.594Z,1.23
2023-03-16T04:21:24.365Z,1.26
2023-03-16T04:23:56.576Z,1.25
2023-03-16T04:26:37.322Z,1.26
2023-03-16T04:29:05.894Z,1.29
2023-03-16T04:31:35.509Z,1.30
2023-03-16T04:34:03.619Z,1.33
2023-03-16T04:36:33.432Z,1.35
2023-03-16T04:39:04.684Z,1.37
2023-03-16T04:41:32.863Z,1.40
2023-03-16T04:44:07.994Z,1.39
2023-03-16T04:46:36.967Z,1.46
2023-03-16T04:49:11.337Z,1.51
2023-03-16T04:51:42.462Z,1.55
2023-03-16T04:54:17.238Z,1.63
2023-03-16T04:56:45.328Z,1.68
2023-03-16T04:59:35.650Z,1.73
2023-03-16T05:02:20.009Z,1.78
2023-03-16T05:04:48.804Z,1.77
2023-03-16T05:07:17.266Z,1.86
2023-03-16T05:09:51.254Z,1.91
2023-03-16T05:12:19.682Z,1.95
2023-03-16T05:14:50.217Z,1.99
2023-03-16T05:17:26.059Z,2.05
2023-03-16T05:19:54.465Z,2.10
2023-03-16T05:22:22.661Z,2.16
2023-03-16T05:25:15.105Z,2.22
2023-03-16T05:27:46.280Z,2.28
2023-03-16T05:30:20.019Z,2.37
2023-03-16T05:32:48.123Z,2.43
2023-03-16T05:35:16.502Z,2.50
2023-03-16T05:37:44.852Z,2.55
2023-03-16T05:40:18.868Z,2.61
2023-03-16T05:42:57.324Z,2.63
2023-03-16T05:45:25.930Z,2.69
2023-03-16T05:48:06.264Z,2.77
2023-03-16T05:50:37.417Z,2.84
2023-03-16T05:53:05.266Z,2.89
2023-03-16T05:55:34.649Z,2.94
2023-03-16T05:58:05.677Z,3.02
2023-03-16T06:00:36.248Z,3.07
2023-03-16T06:03:16.898Z,3.16
2023-03-16T06:05:44.946Z,3.23
2023-03-16T06:08:16.235Z,3.30
2023-03-16T06:10:50.286Z,3.36
2023-03-16T06:13:21.438Z,3.43
2023-03-16T06:15:50.491Z,3.48
2023-03-16T06:18:18.330Z,3.55
2023-03-16T06:20:47.244Z,3.63
2023-03-16T06:23:16.240Z,3.69
2023-03-16T06:25:44.840Z,3.74
2023-03-16T06:28:13.974Z,3.73
2023-03-16T06:30:41.843Z,3.81
2023-03-16T06:33:12.817Z,3.82
2023-03-16T06:35:41.759Z,3.85
2023-03-16T06:38:18.494Z,3.89
2023-03-16T06:40:57.050Z,3.98
2023-03-16T06:43:26.489Z,4.05
2023-03-16T06:45:55.048Z,4.06
2023-03-16T06:48:24.313Z,4.16
2023-03-16T06:50:52.053Z,4.30
2023-03-16T06:53:23.800Z,4.40
2023-03-16T06:55:52.941Z,4.51
2023-03-16T06:58:21.195Z,4.59
2023-03-16T07:00:51.295Z,4.67
2023-03-16T07:03:19.842Z,4.78
2023-03-16T07:05:54.298Z,4.88
2023-03-16T07:08:22.183Z,4.94
2023-03-16T07:10:51.412Z,5.03
2023-03-16T07:13:19.502Z,5.15
2023-03-16T07:15:53.226Z,5.22
2023-03-16T07:18:22.605Z,5.31
2023-03-16T07:20:50.634Z,5.39
2023-03-16T07:23:18.378Z,5.53
2023-03-16T07:25:47.194Z,5.66
2023-03-16T07:28:17.567Z,5.88
2023-03-16T07:31:02.601Z,6.00
2023-03-16T07:33:35.136Z,6.08
2023-03-16T07:36:06.521Z,6.06
2023-03-16T07:38:40.181Z,6.07
2023-03-16T07:41:08.815Z,6.13
2023-03-16T07:43:36.878Z,6.19
2023-03-16T07:46:06.301Z,6.24
2023-03-16T07:48:35.822Z,6.37
2023-03-16T07:51:05.199Z,6.42
2023-03-16T07:53:33.382Z,6.53
2023-03-16T07:56:21.389Z,6.60
2023-03-16T07:58:52.873Z,6.68
2023-03-16T08:01:20.803Z,6.79
2023-03-16T08:03:51.091Z,6.83
2023-03-16T08:06:18.890Z,6.97
2023-03-16T08:08:47.162Z,7.13
2023-03-16T08:11:24.930Z,7.31
2023-03-16T08:13:58.471Z,7.40
2023-03-16T08:16:34.711Z,7.50
2023-03-16T08:19:05.499Z,7.61
2023-03-16T08:21:35.081Z,7.74
2023-03-16T08:24:06.408Z,7.85
2023-03-16T08:26:34.789Z,7.98
2023-03-16T08:29:04.359Z,8.02
2023-03-16T08:31:35.876Z,8.05
2023-03-16T08:34:11.499Z,8.09
2023-03-16T08:36:44.689Z,8.25
2023-03-16T08:39:14.998Z,8.38
2023-03-16T08:41:48.174Z,8.46
2023-03-16T08:44:39.976Z,8.55
2023-03-16T08:47:07.823Z,8.52
2023-03-16T08:49:38.145Z,8.64
2023-03-16T08:52:12.817Z,8.77
2023-03-16T08:54:47.165Z,8.84
2023-03-16T08:57:21.171Z,8.86
2023-03-16T08:59:48.895Z,8.87
2023-03-16T09:02:16.750Z,9.04
2023-03-16T09:04:47.108Z,9.11
2023-03-16T09:07:14.984Z,9.29
2023-03-16T09:09:42.694Z,9.53
2023-03-16T09:12:10.623Z,9.67
2023-03-16T09:14:38.537Z,9.78
2023-03-16T09:17:07.624Z,9.73
2023-03-16T09:19:53.805Z,9.86
2023-03-16T09:22:24.414Z,9.85
2023-03-16T09:24:52.306Z,9.76
2023-03-16T09:27:20.496Z,9.68
2023-03-16T09:29:49.408Z,9.58
2023-03-16T09:32:17.199Z,9.55
2023-03-16T09:34:45.628Z,9.49
2023-03-16T09:37:13.350Z,9.45
2023-03-16T09:39:42.392Z,9.35
2023-03-16T09:42:18.654Z,9.31
2023-03-16T09:44:57.502Z,9.31
2023-03-16T09:47:29.042Z,9.33
2023-03-16T09:49:59.386Z,9.34
2023-03-16T09:52:34.390Z,9.49
2023-03-16T09:55:10.150Z,9.66
2023-03-16T09:57:41.859Z,9.81
2023-03-16T10:00:17.300Z,10.03
2023-03-16T10:03:06.248Z,10.27
2023-03-16T10:05:34.929Z,10.45
2023-03-16T10:08:13.881Z,10.61
2023-03-16T10:10:59.759Z,10.75
2023-03-16T10:13:35.397Z,10.96
2023-03-16T10:16:08.050Z,11.16
2023-03-16T10:18:42.482Z,11.39
2023-03-16T10:21:14.413Z,11.52
2023-03-16T10:23:43.559Z,11.78
2023-03-16T10:26:15.507Z,11.94
2023-03-16T10:28:45.474Z,12.13
2023-03-16T10:31:14.053Z,12.24
2023-03-16T10:33:41.827Z,12.31
2023-03-16T10:36:17.047Z,12.43
2023-03-16T10:38:48.261Z,12.62
2023-03-16T10:41:28.898Z,12.78
2023-03-16T10:43:58.349Z,12.89
2023-03-16T10:46:28.226Z,13.02
2023-03-16T10:49:00.159Z,13.10
2023-03-16T10:51:30.948Z,13.15
2023-03-16T10:54:11.262Z,13.23
2023-03-16T10:56:40.385Z,13.29
2023-03-16T10:59:17.174Z,13.19
2023-03-16T11:01:50.029Z,13.14
2023-03-16T11:04:20.402Z,13.16
2023-03-16T11:06:53.432Z,12.99
2023-03-16T11:09:24.988Z,12.99
2023-03-16T11:11:54.662Z,12.81
2023-03-16T11:14:27.955Z,12.77
2023-03-16T11:17:03.108Z,12.68
2023-03-16T11:19:32.998Z,12.57
2023-03-16T11:22:04.978Z,12.59
2023-03-16T11:24:43.531Z,12.56
2023-03-16T11:27:23.070Z,12.63
2023-03-16T11:30:00.720Z,12.73
2023-03-16T11:32:34.466Z,12.67
2023-03-16T11:35:04.601Z,12.72
2023-03-16T11:37:49.651Z,12.81
2023-03-16T11:40:33.154Z,12.99
2023-03-16T11:43:13.121Z,13.06
2023-03-16T11:45:48.492Z,13.14
2023-03-16T11:48:30.390Z,13.14
2023-03-16T11:51:05.139Z,13.06
2023-03-16T11:53:50.993Z,12.94
2023-03-16T11:56:34.682Z,13.01
2023-03-16T11:59:22.528Z,12.81
2023-03-16T12:02:02.249Z,12.81
2023-03-16T12:04:45.081Z,12.92
2023-03-16T12:07:31.591Z,12.96
2023-03-16T12:10:25.993Z,12.84
2023-03-16T12:13:30.863Z,12.73
2023-03-16T12:16:05.668Z,12.63
2023-03-16T12:18:43.654Z,12.69
2023-03-16T12:21:15.525Z,12.72
2023-03-16T12:23:57.770Z,12.75
2023-03-16T12:26:29.776Z,12.85
2023-03-16T12:28:59.942Z,12.88
2023-03-16T12:31:40.972Z,12.86
2023-03-16T12:34:15.060Z,12.73
2023-03-16T12:37:03.352Z,12.41
2023-03-16T12:39:48.783Z,12.53
2023-03-16T12:42:55.234Z,12.62
2023-03-16T12:45:33.462Z,12.64
2023-03-16T12:48:13.302Z,12.73
2023-03-16T12:50:50.820Z,12.82
2023-03-16T12:53:43.358Z,12.65
2023-03-16T12:56:13.136Z,12.51
2023-03-16T12:58:47.050Z,12.44
2023-03-16T13:01:16.870Z,12.39
2023-03-16T13:03:48.623Z,12.37
2023-03-16T13:06:23.771Z,12.29
2023-03-16T13:08:57.744Z,12.34
2023-03-16T13:11:25.557Z,12.27
2023-03-16T13:14:07.310Z,12.27
2023-03-16T13:16:37.468Z,12.31
2023-03-16T13:19:26.297Z,12.36
2023-03-16T13:22:06.890Z,12.35
2023-03-16T13:24:40.809Z,12.41
2023-03-16T13:27:22.324Z,12.40
2023-03-16T13:29:58.561Z,12.39
2023-03-16T13:32:30.934Z,12.43
2023-03-16T13:35:02.291Z,12.50
2023-03-16T13:37:31.101Z,12.49
2023-03-16T13:40:04.186Z,12.42
2023-03-16T13:42:33.190Z,12.56
2023-03-16T13:45:14.178Z,12.53
2023-03-16T13:47:44.087Z,12.63
2023-03-16T13:50:14.963Z,12.71
2023-03-16T13:52:44.582Z,12.69
2023-03-16T13:55:18.088Z,12.57
2023-03-16T13:57:47.442Z,12.44
2023-03-16T14:00:20.130Z,12.16
2023-03-16T14:02:51.987Z,12.15
2023-03-16T14:05:24.403Z,12.14
2023-03-16T14:07:53.178Z,12.14
2023-03-16T14:10:22.063Z,12.07
2023-03-16T14:12:54.127Z,11.97
2023-03-16T14:15:23.819Z,11.95
2023-03-16T14:17:51.887Z,11.84
2023-03-16T14:20:23.237Z,11.91
2023-03-16T14:22:53.298Z,11.93
2023-03-16T14:25:24.150Z,11.98
2023-03-16T14:27:59.808Z,12.01
2023-03-16T14:30:30.260Z,12.00
2023-03-16T14:33:00.460Z,11.85
2023-03-16T14:35:32.279Z,11.84
2023-03-16T14:38:29.559Z,11.67
2023-03-16T14:40:58.986Z,11.54
2023-03-16T14:43:32.660Z,11.53
2023-03-16T14:46:01.569Z,11.52
2023-03-16T14:48:30.282Z,11.34
2023-03-16T14:51:02.043Z,11.36
2023-03-16T14:53:30.052Z,11.28
2023-03-16T14:55:58.414Z,11.19
2023-03-16T14:58:26.590Z,11.13
2023-03-16T15:00:55.353Z,11.18
2023-03-16T15:03:28.355Z,11.17
2023-03-16T15:05:56.128Z,11.26
2023-03-16T15:08:28.517Z,11.27
2023-03-16T15:11:00.764Z,11.20
2023-03-16T15:13:53.051Z,11.22
2023-03-16T15:16:22.967Z,11.24
2023-03-16T15:18:51.820Z,11.23
2023-03-16T15:21:23.308Z,11.12
2023-03-16T15:23:52.569Z,11.05
2023-03-16T15:26:27.219Z,10.92
2023-03-16T15:28:56.424Z,10.75
2023-03-16T15:31:24.964Z,10.56
2023-03-16T15:33:52.854Z,10.56
2023-03-16T15:36:24.171Z,10.47
2023-03-16T15:38:55.672Z,10.46
2023-03-16T15:41:24.872Z,10.39
2023-03-16T15:43:52.886Z,10.49
2023-03-16T15:46:20.835Z,10.54
2023-03-16T15:48:48.556Z,10.51
2023-03-16T15:51:22.648Z,10.54
2023-03-16T15:53:54.282Z,10.55
2023-03-16T15:56:29.860Z,10.41
2023-03-16T15:59:00.902Z,10.37
2023-03-16T16:01:31.929Z,10.28
2023-03-16T16:03:59.838Z,10.26
2023-03-16T16:06:28.576Z,10.19
2023-03-16T16:08:57.667Z,10.10
2023-03-16T16:11:28.591Z,9.96
2023-03-16T16:13:57.506Z,9.86
2023-03-16T16:16:28.702Z,9.78
2023-03-16T16:18:57.247Z,9.68
2023-03-16T16:21:27.985Z,9.51
2023-03-16T16:23:57.263Z,9.46
2023-03-16T16:26:47.038Z,9.35
2023-03-16T16:29:18.423Z,9.26
2023-03-16T16:31:46.551Z,9.17
2023-03-16T16:34:17.827Z,9.09
2023-03-16T16:36:45.971Z,8.97
2023-03-16T16:39:15.543Z,8.93
2023-03-16T16:41:44.220Z,8.84
2023-03-16T16:44:17.188Z,8.81
2023-03-16T16:46:45.024Z,8.76
2023-03-16T16:49:16.598Z,8.69
2023-03-16T16:51:44.552Z,8.64
2023-03-16T16:54:18.899Z,8.60
2023-03-16T16:56:47.628Z,8.53
2023-03-16T16:59:18.601Z,8.48
2023-03-16T17:01:47.471Z,8.43
2023-03-16T17:04:17.454Z,8.32
2023-03-16T17:06:46.651Z,8.31
2023-03-16T17:09:16.141Z,8.27
2023-03-16T17:11:45.606Z,8.23
2023-03-16T17:14:17.895Z,8.16
2023-03-16T17:16:47.140Z,8.09
2023-03-16T17:19:21.307Z,7.99
2023-03-16T17:21:49.093Z,7.98
2023-03-16T17:24:18.870Z,7.91
2023-03-16T17:26:49.514Z,7.82
2023-03-16T17:29:22.528Z,7.72
2023-03-16T17:31:51.388Z,7.63
2023-03-16T17:34:21.770Z,7.52
2023-03-16T17:36:49.762Z,7.46
2023-03-16T17:39:21.904Z,7.39
2023-03-16T17:41:52.274Z,7.36
2023-03-16T17:44:21.350Z,7.32
2023-03-16T17:46:49.663Z,7.28
2023-03-16T17:49:19.983Z,7.23
2023-03-16T17:51:47.800Z,7.18
2023-03-16T17:54:15.635Z,7.12
2023-03-16T17:56:45.940Z,7.05
2023-03-16T17:59:18.332Z,6.95
2023-03-16T18:01:47.533Z,6.94
2023-03-16T18:04:17.876Z,6.90
2023-03-16T18:06:47.390Z,6.83
2023-03-16T18:09:15.809Z,6.81
2023-03-16T18:11:47.711Z,6.76
2023-03-16T18:14:25.421Z,6.72
2023-03-16T18:16:54.654Z,6.65
2023-03-16T18:19:25.686Z,6.59
2023-03-16T18:21:54.041Z,6.53
2023-03-16T18:24:25.517Z,6.47
2023-03-16T18:26:55.207Z,6.40
2023-03-16T18:29:23.978Z,6.36
2023-03-16T18:31:55.327Z,6.31
2023-03-16T18:34:25.308Z,6.29
2023-03-16T18:36:54.853Z,6.28
2023-03-16T18:39:23.287Z,6.32
2023-03-16T18:41:51.145Z,6.33
2023-03-16T18:44:22.413Z,6.38
2023-03-16T18:46:51.901Z,6.43
2023-03-16T18:49:23.269Z,6.46
2023-03-16T18:51:53.262Z,6.52
2023-03-16T18:54:23.503Z,6.54
2023-03-16T18:56:51.873Z,6.63
2023-03-16T18:59:21.528Z,6.68
2023-03-16T19:01:49.516Z,6.74
2023-03-16T19:04:21.437Z,6.79
2023-03-16T19:06:50.121Z,6.84
2023-03-16T19:09:21.330Z,6.87
2023-03-16T19:11:50.481Z,6.92
2023-03-16T19:14:20.495Z,6.94
2023-03-16T19:16:49.942Z,6.96
2023-03-16T19:19:21.211Z,6.98
2023-03-16T19:21:50.366Z,7.01
2023-03-16T19:24:23.301Z,7.01
2023-03-16T19:26:51.915Z,7.06
2023-03-16T19:29:21.110Z,7.07
2023-03-16T19:31:50.968Z,7.06
2023-03-16T19:34:19.418Z,7.08
2023-03-16T19:36:47.312Z,7.07
2023-03-16T19:39:16.917Z,7.05
2023-03-16T19:41:46.476Z,7.04
2023-03-16T19:44:17.847Z,7.02
2023-03-16T19:46:46.573Z,7.01
2023-03-16T19:49:19.664Z,6.92
2023-03-16T19:51:47.529Z,6.93
2023-03-16T19:54:22.128Z,6.89
2023-03-16T19:56:50.095Z,6.84
2023-03-16T19:59:18.807Z,6.79
2023-03-16T20:01:47.088Z,6.68
2023-03-16T20:04:18.441Z,6.62
2023-03-16T20:06:48.729Z,6.54
2023-03-16T20:09:17.538Z,6.47
2023-03-16T20:11:46.620Z,6.38
2023-03-16T20:14:21.356Z,6.29
2023-03-16T20:16:49.193Z,6.22
2023-03-16T20:19:20.238Z,6.16
2023-03-16T20:21:49.808Z,6.13
2023-03-16T20:24:20.830Z,6.07
2023-03-16T20:26:51.290Z,6.02
2023-03-16T20:29:24.984Z,5.98
2023-03-16T20:31:52.802Z,5.93
2023-03-16T20:34:24.054Z,5.91
2023-03-16T20:36:51.802Z,5.91
2023-03-16T20:39:19.552Z,5.95
2023-03-16T20:41:47.413Z,6.04
2023-03-16T20:44:18.113Z,6.17
2023-03-16T20:46:46.984Z,6.27
2023-03-16T20:49:32.325Z,6.32
2023-03-16T20:52:00.106Z,6.37
2023-03-16T20:54:28.395Z,6.40
2023-03-16T20:56:56.192Z,6.46
2023-03-16T20:59:26.421Z,6.48
2023-03-16T21:01:55.941Z,6.48
2023-03-16T21:04:27.871Z,6.51
2023-03-16T21:06:56.818Z,6.55
2023-03-16T21:09:24.824Z,6.57
2023-03-16T21:11:52.959Z,6.62
2023-03-16T21:14:24.269Z,6.63
2023-03-16T21:16:54.149Z,6.64
2023-03-16T21:19:23.935Z,6.68
2023-03-16T21:21:53.237Z,6.71
2023-03-16T21:24:21.056Z,6.73
2023-03-16T21:26:49.071Z,6.74
2023-03-16T21:29:21.124Z,6.74
2023-03-16T21:31:49.422Z,6.77
2023-03-16T21:34:24.135Z,6.74
2023-03-16T21:36:53.324Z,6.73
2023-03-16T21:39:25.233Z,6.71
2023-03-16T21:41:53.657Z,6.67
2023-03-16T21:44:21.738Z,6.61
2023-03-16T21:46:49.624Z,6.59
2023-03-16T21:49:18.032Z,6.57
2023-03-16T21:51:45.880Z,6.56
2023-03-16T21:54:16.255Z,6.56
2023-03-16T21:56:44.471Z,6.56
2023-03-16T21:59:13.017Z,6.58
2023-03-16T22:01:58.342Z,6.62
2023-03-16T22:04:28.379Z,6.62
2023-03-16T22:06:56.206Z,6.64
2023-03-16T22:09:29.856Z,6.68
2023-03-16T22:11:57.759Z,6.72
2023-03-16T22:14:25.574Z,6.61
2023-03-16T22:16:53.343Z,6.80
2023-03-16T22:19:21.357Z,6.84
2023-03-16T22:21:49.903Z,6.86
2023-03-16T22:24:20.361Z,6.87
2023-03-16T22:26:50.813Z,6.88
2023-03-16T22:29:23.240Z,6.88
2023-03-16T22:31:53.687Z,6.90
2023-03-16T22:34:28.315Z,6.89
2023-03-16T22:36:56.706Z,6.87
2023-03-16T22:39:25.007Z,6.82
2023-03-16T22:41:54.145Z,6.76
2023-03-16T22:44:23.491Z,6.69
2023-03-16T22:46:51.436Z,6.65
2023-03-16T22:49:22.106Z,6.61
2023-03-16T22:51:52.428Z,6.53
2023-03-16T22:54:23.367Z,6.48
2023-03-16T22:56:51.499Z,6.43
2023-03-16T22:59:25.563Z,6.37
2023-03-16T23:01:53.387Z,6.33
2023-03-16T23:04:24.436Z,6.30
2023-03-16T23:06:54.288Z,6.29
2023-03-16T23:09:22.667Z,6.24
2023-03-16T23:11:53.963Z,6.24
2023-03-16T23:14:25.095Z,6.30
2023-03-16T23:16:53.595Z,6.29
2023-03-16T23:19:25.584Z,6.31
2023-03-16T23:21:55.769Z,6.28
2023-03-16T23:24:23.979Z,6.30
2023-03-16T23:26:52.753Z,6.30
2023-03-16T23:29:21.610Z,6.31
2023-03-16T23:31:51.376Z,6.32
2023-03-16T23:34:22.587Z,6.31
2023-03-16T23:36:50.812Z,6.31
2023-03-16T23:39:19.084Z,6.27
2023-03-16T23:41:48.789Z,6.24
2023-03-16T23:44:18.645Z,6.20
2023-03-16T23:46:46.938Z,6.16
2023-03-16T23:49:21.500Z,6.14
2023-03-16T23:51:49.622Z,6.11
2023-03-16T23:54:20.634Z,6.10
2023-03-16T23:56:48.548Z,6.09
2023-03-16T23:59:16.838Z,6.10
